Portada
METAR-TAF:

METAR-TAF

Aeroports :

Phillip Goldston

Belize City, Belize

latitud: 17-32N, longitud: 088-18W, altitud: 5 m

Observació

L'informe es va fer fa 3 hores i 38 minuts, a les 00:00 UTC
Vent 7 kt del Est
Temperatura 28°C
Humitat 79%
Pressió 1013 hPa
Visibilitat 10 km o més
Núvols disperses a una alçada de 2300 ft

METAR: MZBZ 300000Z 10007KT 9999 SCT023 28/24 A2993 Q1013 NOSIG

Hora: 21:38 (03:38 UTC)

Pronòstic

L'informe es va fer fa 6 hores i 38 minuts, a les 21:00 UTC
Pronòstic vàlid del 30 a les 00 UTC al 30 a les 24 UTC
Vent 10 kt del Est
Visibilitat 10 km o més
Núvols disperses a una alçada de 2200 ft

TAF: MZBZ 292100Z 3000/3024 09010KT 9999 SCT022

Observacions i pronòstics meteorològics de més de 4000 aeroports (METAR i TAF).

Les estacions disponibles són els punts grocs i vermells al mapa.

Posi el ratolí al punt desitjat per veure el nom de l'estació.

Feu clic per veure les observacions i els pronòstics meteorològics.

Per canviar el mapa: feu clic els botons verds amb una creu de color negre per apropar; al botó verd amb un guió per allunyar la imatge; o en les fletxes verdes per a mapes adjacents.


METAR-TAF: